48.7°F
Current conditions from King Hill
Updated every 5 minutes
 
  Friday October 31, 2014

Station Historical Data
Daily Summary for February 28, 2011 Units:  Both    English   Metric
« Previous Day
Next Day »
Daily Weekly Monthly Yearly Custom
  High: Low: Average:
Temperature: 34.1 °F /  1.2 °C 26.0 °F /  -3.3 °C 31.2 °F /  -0.4 °C
Dew Point: 32.3 °F /  0.2 °C 19.0 °F /  -7.2 °C 26 °F /  -3.3 °C
Humidity: 93% 69% 81%
Wind Speed: 14.0mph /  22.5km/h - 6mph /  9.7km/h
Wind Gust: 26.0mph /  41.8km/h - -
Wind- - WSW
Pressure: 29.99 in /  1015.5 hPa 29.39 in /  995.1 hPa -
Precipitation: 0.00 in /  0 mm    
Historical Graphs
 
 
Tabular Data for February 28, 2011
Time Temperature Dew Point Pressure Wind Wind Speed Wind Gust Humidity Daily Rainfall
00:04 29.4 °F /  -1.4 °C 22.1 °F /  -5.5 °C 29.99in /  1015.5hPa SSW 4.0mph /  6.4km/h 12.0mph /  19.3km/h 74% 0.00in /  0mm
00:09 29.5 °F /  -1.4 °C 22.2 °F /  -5.4 °C 29.99in /  1015.5hPa South 4.0mph /  6.4km/h 12.0mph /  19.3km/h 74% 0.00in /  0mm
00:14 29.5 °F /  -1.4 °C 21.9 °F /  -5.6 °C 29.98in /  1015.1hPa South 5.0mph /  8km/h 11.0mph /  17.7km/h 73% 0.00in /  0mm
00:19 29.5 °F /  -1.4 °C 21.9 °F /  -5.6 °C 29.97in /  1014.8hPa South 4.0mph /  6.4km/h 11.0mph /  17.7km/h 73% 0.00in /  0mm
00:24 29.7 °F /  -1.3 °C 22.1 °F /  -5.5 °C 29.98in /  1015.1hPa South 6.0mph /  9.7km/h 12.0mph /  19.3km/h 73% 0.00in /  0mm
00:29 29.9 °F /  -1.2 °C 22.0 °F /  -5.6 °C 29.98in /  1015.1hPa SSW 5.0mph /  8km/h 12.0mph /  19.3km/h 72% 0.00in /  0mm
00:34 30.0 °F /  -1.1 °C 22.1 °F /  -5.5 °C 29.97in /  1014.8hPa South 6.0mph /  9.7km/h 11.0mph /  17.7km/h 72% 0.00in /  0mm
00:39 30.0 °F /  -1.1 °C 22.1 °F /  -5.5 °C 29.97in /  1014.8hPa SSW 4.0mph /  6.4km/h 11.0mph /  17.7km/h 72% 0.00in /  0mm
00:44 30.2 °F /  -1 °C 21.9 °F /  -5.6 °C 29.97in /  1014.8hPa South 7.0mph /  11.3km/h 13.0mph /  20.9km/h 71% 0.00in /  0mm
00:49 30.3 °F /  -0.9 °C 22.0 °F /  -5.6 °C 29.97in /  1014.8hPa South 6.0mph /  9.7km/h 13.0mph /  20.9km/h 71% 0.00in /  0mm
00:59 30.1 °F /  -1.1 °C 21.8 °F /  -5.7 °C 29.96in /  1014.4hPa South 4.0mph /  6.4km/h 11.0mph /  17.7km/h 71% 0.00in /  0mm
01:09 30.4 °F /  -0.9 °C 22.1 °F /  -5.5 °C 29.95in /  1014.1hPa South 5.0mph /  8km/h 12.0mph /  19.3km/h 71% 0.00in /  0mm
01:14 30.7 °F /  -0.7 °C 22.4 °F /  -5.3 °C 29.95in /  1014.1hPa SSW 6.0mph /  9.7km/h 11.0mph /  17.7km/h 71% 0.00in /  0mm
01:19 30.8 °F /  -0.7 °C 22.5 °F /  -5.3 °C 29.95in /  1014.1hPa SSW 4.0mph /  6.4km/h 11.0mph /  17.7km/h 71% 0.00in /  0mm
01:24 31.1 °F /  -0.5 °C 22.5 °F /  -5.3 °C 29.94in /  1013.8hPa SSW 5.0mph /  8km/h 11.0mph /  17.7km/h 70% 0.00in /  0mm
01:29 31.5 °F /  -0.3 °C 22.8 °F /  -5.1 °C 29.95in /  1014.1hPa South 5.0mph /  8km/h 11.0mph /  17.7km/h 70% 0.00in /  0mm
01:34 31.6 °F /  -0.2 °C 22.9 °F /  -5.1 °C 29.95in /  1014.1hPa South 6.0mph /  9.7km/h 11.0mph /  17.7km/h 70% 0.00in /  0mm
01:39 31.5 °F /  -0.3 °C 22.8 °F /  -5.1 °C 29.95in /  1014.1hPa SSW 6.0mph /  9.7km/h 11.0mph /  17.7km/h 70% 0.00in /  0mm
01:44 31.5 °F /  -0.3 °C 22.8 °F /  -5.1 °C 29.95in /  1014.1hPa SSW 7.0mph /  11.3km/h 12.0mph /  19.3km/h 70% 0.00in /  0mm
01:49 31.5 °F /  -0.3 °C 22.8 °F /  -5.1 °C 29.95in /  1014.1hPa SSW 5.0mph /  8km/h 12.0mph /  19.3km/h 70% 0.00in /  0mm
01:55 31.6 °F /  -0.2 °C 22.9 °F /  -5.1 °C 29.95in /  1014.1hPa SSW 6.0mph /  9.7km/h 14.0mph /  22.5km/h 70% 0.00in /  0mm
01:59 31.6 °F /  -0.2 °C 22.9 °F /  -5.1 °C 29.94in /  1013.8hPa South 6.0mph /  9.7km/h 14.0mph /  22.5km/h 70% 0.00in /  0mm
02:04 31.7 °F /  -0.2 °C 23.0 °F /  -5 °C 29.94in /  1013.8hPa SSW 4.0mph /  6.4km/h 9.0mph /  14.5km/h 70% 0.00in /  0mm
02:09 31.6 °F /  -0.2 °C 22.9 °F /  -5.1 °C 29.93in /  1013.4hPa South 5.0mph /  8km/h 10.0mph /  16.1km/h 70% 0.00in /  0mm
02:14 31.7 °F /  -0.2 °C 23.0 °F /  -5 °C 29.93in /  1013.4hPa SSW 6.0mph /  9.7km/h 11.0mph /  17.7km/h 70% 0.00in /  0mm
02:19 31.7 °F /  -0.2 °C 23.0 °F /  -5 °C 29.93in /  1013.4hPa South 4.0mph /  6.4km/h 11.0mph /  17.7km/h 70% 0.00in /  0mm
02:24 31.7 °F /  -0.2 °C 23.4 °F /  -4.8 °C 29.92in /  1013.1hPa South 2.0mph /  3.2km/h 10.0mph /  16.1km/h 71% 0.00in /  0mm
02:29 31.8 °F /  -0.1 °C 23.1 °F /  -4.9 °C 29.91in /  1012.8hPa South 6.0mph /  9.7km/h 11.0mph /  17.7km/h 70% 0.00in /  0mm
02:34 32.0 °F /  0 °C 23.3 °F /  -4.8 °C 29.90in /  1012.4hPa SSW 5.0mph /  8km/h 12.0mph /  19.3km/h 70% 0.00in /  0mm
02:39 32.1 °F /  0.1 °C 23.4 °F /  -4.8 °C 29.90in /  1012.4hPa South 4.0mph /  6.4km/h 12.0mph /  19.3km/h 70% 0.00in /  0mm
02:44 32.3 °F /  0.2 °C 23.3 °F /  -4.8 °C 29.89in /  1012.1hPa South 5.0mph /  8km/h 10.0mph /  16.1km/h 69% 0.00in /  0mm
02:49 32.4 °F /  0.2 °C 23.4 °F /  -4.8 °C 29.88in /  1011.7hPa South 5.0mph /  8km/h 10.0mph /  16.1km/h 69% 0.00in /  0mm
02:54 32.5 °F /  0.3 °C 23.5 °F /  -4.7 °C 29.88in /  1011.7hPa South 4.0mph /  6.4km/h 12.0mph /  19.3km/h 69% 0.00in /  0mm
03:04 32.3 °F /  0.2 °C 23.3 °F /  -4.8 °C 29.88in /  1011.7hPa SSW 5.0mph /  8km/h 9.0mph /  14.5km/h 69% 0.00in /  0mm
03:09 32.2 °F /  0.1 °C 23.5 °F /  -4.7 °C 29.87in /  1011.4hPa South 1.0mph /  1.6km/h 9.0mph /  14.5km/h 70% 0.00in /  0mm
03:14 32.2 °F /  0.1 °C 23.5 °F /  -4.7 °C 29.86in /  1011.1hPa SSW 3.0mph /  4.8km/h 8.0mph /  12.9km/h 70% 0.00in /  0mm
03:19 32.3 °F /  0.2 °C 23.6 °F /  -4.7 °C 29.85in /  1010.7hPa South 4.0mph /  6.4km/h 10.0mph /  16.1km/h 70% 0.00in /  0mm
03:24 32.4 °F /  0.2 °C 23.7 °F /  -4.6 °C 29.85in /  1010.7hPa South 3.0mph /  4.8km/h 10.0mph /  16.1km/h 70% 0.00in /  0mm
03:30 32.4 °F /  0.2 °C 23.7 °F /  -4.6 °C 29.86in /  1011.1hPa South 6.0mph /  9.7km/h 11.0mph /  17.7km/h 70% 0.00in /  0mm
03:34 32.4 °F /  0.2 °C 23.7 °F /  -4.6 °C 29.86in /  1011.1hPa South 6.0mph /  9.7km/h 11.0mph /  17.7km/h 70% 0.00in /  0mm
03:39 32.3 °F /  0.2 °C 23.6 °F /  -4.7 °C 29.86in /  1011.1hPa South 6.0mph /  9.7km/h 11.0mph /  17.7km/h 70% 0.00in /  0mm
03:44 32.1 °F /  0.1 °C 23.4 °F /  -4.8 °C 29.85in /  1010.7hPa SSW 5.0mph /  8km/h 11.0mph /  17.7km/h 70% 0.00in /  0mm
03:49 32.0 °F /  0 °C 23.7 °F /  -4.6 °C 29.85in /  1010.7hPa South 4.0mph /  6.4km/h 10.0mph /  16.1km/h 71% 0.00in /  0mm
03:54 32.1 °F /  0.1 °C 23.8 °F /  -4.6 °C 29.86in /  1011.1hPa SSW 5.0mph /  8km/h 11.0mph /  17.7km/h 71% 0.00in /  0mm
03:59 32.1 °F /  0.1 °C 23.8 °F /  -4.6 °C 29.85in /  1010.7hPa SSW 3.0mph /  4.8km/h 11.0mph /  17.7km/h 71% 0.00in /  0mm
04:04 32.2 °F /  0.1 °C 23.9 °F /  -4.5 °C 29.85in /  1010.7hPa SSW 5.0mph /  8km/h 13.0mph /  20.9km/h 71% 0.00in /  0mm
04:09 32.2 °F /  0.1 °C 23.9 °F /  -4.5 °C 29.85in /  1010.7hPa SSW 3.0mph /  4.8km/h 13.0mph /  20.9km/h 71% 0.00in /  0mm
04:14 32.1 °F /  0.1 °C 23.8 °F /  -4.6 °C 29.85in /  1010.7hPa SSW 5.0mph /  8km/h 13.0mph /  20.9km/h 71% 0.00in /  0mm
04:19 32.0 °F /  0 °C 25.3 °F /  -3.7 °C 29.86in /  1011.1hPa SSW 6.0mph /  9.7km/h 13.0mph /  20.9km/h 76% 0.00in /  0mm
04:24 31.8 °F /  -0.1 °C 23.8 °F /  -4.6 °C 29.85in /  1010.7hPa South 6.0mph /  9.7km/h 13.0mph /  20.9km/h 72% 0.00in /  0mm
04:29 31.6 °F /  -0.2 °C 23.9 °F /  -4.5 °C 29.85in /  1010.7hPa South 6.0mph /  9.7km/h 13.0mph /  20.9km/h 73% 0.00in /  0mm
04:34 31.4 °F /  -0.3 °C 24.1 °F /  -4.4 °C 29.85in /  1010.7hPa South 6.0mph /  9.7km/h 13.0mph /  20.9km/h 74% 0.00in /  0mm
04:39 31.4 °F /  -0.3 °C 24.1 °F /  -4.4 °C 29.84in /  1010.4hPa South 9.0mph /  14.5km/h 15.0mph /  24.1km/h 74% 0.00in /  0mm
04:44 31.4 °F /  -0.3 °C 24.1 °F /  -4.4 °C 29.84in /  1010.4hPa SSE 4.0mph /  6.4km/h 15.0mph /  24.1km/h 74% 0.00in /  0mm
04:49 31.4 °F /  -0.3 °C 24.1 °F /  -4.4 °C 29.84in /  1010.4hPa South 7.0mph /  11.3km/h 16.0mph /  25.7km/h 74% 0.00in /  0mm
04:54 31.4 °F /  -0.3 °C 24.1 °F /  -4.4 °C 29.84in /  1010.4hPa SSW 6.0mph /  9.7km/h 16.0mph /  25.7km/h 74% 0.00in /  0mm
04:59 31.2 °F /  -0.4 °C 23.9 °F /  -4.5 °C 29.84in /  1010.4hPa South 8.0mph /  12.9km/h 15.0mph /  24.1km/h 74% 0.00in /  0mm
05:04 31.0 °F /  -0.6 °C 24.3 °F /  -4.3 °C 29.84in /  1010.4hPa South 5.0mph /  8km/h 14.0mph /  22.5km/h 76% 0.00in /  0mm
05:09 30.7 °F /  -0.7 °C 24.3 °F /  -4.3 °C 29.83in /  1010hPa South 7.0mph /  11.3km/h 13.0mph /  20.9km/h 77% 0.00in /  0mm
05:14 30.7 °F /  -0.7 °C 24.0 °F /  -4.4 °C 29.83in /  1010hPa South 8.0mph /  12.9km/h 13.0mph /  20.9km/h 76% 0.00in /  0mm
05:19 30.8 °F /  -0.7 °C 24.1 °F /  -4.4 °C 29.83in /  1010hPa South 8.0mph /  12.9km/h 16.0mph /  25.7km/h 76% 0.00in /  0mm
05:24 30.8 °F /  -0.7 °C 24.4 °F /  -4.2 °C 29.83in /  1010hPa South 7.0mph /  11.3km/h 16.0mph /  25.7km/h 77% 0.00in /  0mm
05:29 30.9 °F /  -0.6 °C 24.9 °F /  -3.9 °C 29.83in /  1010hPa South 4.0mph /  6.4km/h 18.0mph /  29km/h 78% 0.00in /  0mm
05:34 30.8 °F /  -0.7 °C 25.1 °F /  -3.8 °C 29.83in /  1010hPa South 8.0mph /  12.9km/h 18.0mph /  29km/h 79% 0.00in /  0mm
05:39 30.7 °F /  -0.7 °C 25.3 °F /  -3.7 °C 29.82in /  1009.7hPa South 10.0mph /  16.1km/h 18.0mph /  29km/h 80% 0.00in /  0mm
05:44 30.5 °F /  -0.8 °C 25.4 °F /  -3.7 °C 29.82in /  1009.7hPa South 9.0mph /  14.5km/h 19.0mph /  30.6km/h 81% 0.00in /  0mm
05:49 30.4 °F /  -0.9 °C 25.3 °F /  -3.7 °C 29.82in /  1009.7hPa South 10.0mph /  16.1km/h 19.0mph /  30.6km/h 81% 0.00in /  0mm
05:54 30.3 °F /  -0.9 °C 25.5 °F /  -3.6 °C 29.82in /  1009.7hPa South 7.0mph /  11.3km/h 16.0mph /  25.7km/h 82% 0.00in /  0mm
06:04 29.9 °F /  -1.2 °C 25.1 °F /  -3.8 °C 29.82in /  1009.7hPa South 9.0mph /  14.5km/h 22.0mph /  35.4km/h 82% 0.00in /  0mm
06:09 29.8 °F /  -1.2 °C 25.3 °F /  -3.7 °C 29.81in /  1009.4hPa South 9.0mph /  14.5km/h 17.0mph /  27.4km/h 83% 0.00in /  0mm
06:14 29.8 °F /  -1.2 °C 25.0 °F /  -3.9 °C 29.81in /  1009.4hPa South 10.0mph /  16.1km/h 18.0mph /  29km/h 82% 0.00in /  0mm
06:19 29.9 °F /  -1.2 °C 25.1 °F /  -3.8 °C 29.80in /  1009hPa South 6.0mph /  9.7km/h 18.0mph /  29km/h 82% 0.00in /  0mm
06:24 29.9 °F /  -1.2 °C 25.1 °F /  -3.8 °C 29.79in /  1008.7hPa South 8.0mph /  12.9km/h 15.0mph /  24.1km/h 82% 0.00in /  0mm
06:29 30.1 °F /  -1.1 °C 25.3 °F /  -3.7 °C 29.79in /  1008.7hPa South 9.0mph /  14.5km/h 20.0mph /  32.2km/h 82% 0.00in /  0mm
06:34 30.1 °F /  -1.1 °C 25.0 °F /  -3.9 °C 29.78in /  1008.4hPa South 8.0mph /  12.9km/h 20.0mph /  32.2km/h 81% 0.00in /  0mm
06:39 30.1 °F /  -1.1 °C 25.0 °F /  -3.9 °C 29.77in /  1008hPa South 8.0mph /  12.9km/h 15.0mph /  24.1km/h 81% 0.00in /  0mm
06:44 30.1 °F /  -1.1 °C 25.3 °F /  -3.7 °C 29.77in /  1008hPa South 6.0mph /  9.7km/h 16.0mph /  25.7km/h 82% 0.00in /  0mm
06:49 30.1 °F /  -1.1 °C 25.6 °F /  -3.6 °C 29.77in /  1008hPa South 6.0mph /  9.7km/h 16.0mph /  25.7km/h 83% 0.00in /  0mm
06:54 30.2 °F /  -1 °C 25.7 °F /  -3.5 °C 29.77in /  1008hPa South 6.0mph /  9.7km/h 14.0mph /  22.5km/h 83% 0.00in /  0mm
06:59 30.4 °F /  -0.9 °C 26.1 °F /  -3.3 °C 29.76in /  1007.7hPa SSW 8.0mph /  12.9km/h 15.0mph /  24.1km/h 84% 0.00in /  0mm
07:04 30.5 °F /  -0.8 °C 26.2 °F /  -3.2 °C 29.76in /  1007.7hPa South 7.0mph /  11.3km/h 16.0mph /  25.7km/h 84% 0.00in /  0mm
07:09 30.7 °F /  -0.7 °C 26.4 °F /  -3.1 °C 29.75in /  1007.3hPa South 5.0mph /  8km/h 16.0mph /  25.7km/h 84% 0.00in /  0mm
07:14 30.7 °F /  -0.7 °C 26.4 °F /  -3.1 °C 29.75in /  1007.3hPa South 7.0mph /  11.3km/h 14.0mph /  22.5km/h 84% 0.00in /  0mm
07:19 30.7 °F /  -0.7 °C 26.4 °F /  -3.1 °C 29.75in /  1007.3hPa South 7.0mph /  11.3km/h 14.0mph /  22.5km/h 84% 0.00in /  0mm
07:24 30.7 °F /  -0.7 °C 26.2 °F /  -3.2 °C 29.74in /  1007hPa South 7.0mph /  11.3km/h 14.0mph /  22.5km/h 83% 0.00in /  0mm
07:29 30.7 °F /  -0.7 °C 26.2 °F /  -3.2 °C 29.74in /  1007hPa SSW 6.0mph /  9.7km/h 17.0mph /  27.4km/h 83% 0.00in /  0mm
07:34 30.9 °F /  -0.6 °C 26.3 °F /  -3.2 °C 29.74in /  1007hPa South 4.0mph /  6.4km/h 17.0mph /  27.4km/h 83% 0.00in /  0mm
07:39 30.9 °F /  -0.6 °C 26.3 °F /  -3.2 °C 29.73in /  1006.7hPa South 7.0mph /  11.3km/h 13.0mph /  20.9km/h 83% 0.00in /  0mm
07:44 31.0 °F /  -0.6 °C 26.4 °F /  -3.1 °C 29.73in /  1006.7hPa South 6.0mph /  9.7km/h 12.0mph /  19.3km/h 83% 0.00in /  0mm
07:49 31.1 °F /  -0.5 °C 26.5 °F /  -3.1 °C 29.72in /  1006.3hPa South 5.0mph /  8km/h 12.0mph /  19.3km/h 83% 0.00in /  0mm
07:54 31.0 °F /  -0.6 °C 26.4 °F /  -3.1 °C 29.71in /  1006hPa South 5.0mph /  8km/h 15.0mph /  24.1km/h 83% 0.00in /  0mm
07:59 31.1 °F /  -0.5 °C 26.5 °F /  -3.1 °C 29.71in /  1006hPa South 6.0mph /  9.7km/h 15.0mph /  24.1km/h 83% 0.00in /  0mm
08:04 31.2 °F /  -0.4 °C 26.9 °F /  -2.8 °C 29.71in /  1006hPa SSE 5.0mph /  8km/h 12.0mph /  19.3km/h 84% 0.00in /  0mm
08:09 31.2 °F /  -0.4 °C 26.6 °F /  -3 °C 29.70in /  1005.6hPa South 3.0mph /  4.8km/h 11.0mph /  17.7km/h 83% 0.00in /  0mm
08:14 31.1 °F /  -0.5 °C 26.5 °F /  -3.1 °C 29.70in /  1005.6hPa South 5.0mph /  8km/h 13.0mph /  20.9km/h 83% 0.00in /  0mm
08:19 31.0 °F /  -0.6 °C 26.4 °F /  -3.1 °C 29.69in /  1005.3hPa South 7.0mph /  11.3km/h 13.0mph /  20.9km/h 83% 0.00in /  0mm
08:24 30.9 °F /  -0.6 °C 26.3 °F /  -3.2 °C 29.69in /  1005.3hPa South 6.0mph /  9.7km/h 13.0mph /  20.9km/h 83% 0.00in /  0mm
08:29 30.8 °F /  -0.7 °C 26.5 °F /  -3.1 °C 29.68in /  1005hPa South 8.0mph /  12.9km/h 15.0mph /  24.1km/h 84% 0.00in /  0mm
08:34 30.8 °F /  -0.7 °C 26.5 °F /  -3.1 °C 29.68in /  1005hPa South 7.0mph /  11.3km/h 15.0mph /  24.1km/h 84% 0.00in /  0mm
08:39 30.9 °F /  -0.6 °C 26.9 °F /  -2.8 °C 29.67in /  1004.6hPa South 3.0mph /  4.8km/h 13.0mph /  20.9km/h 85% 0.00in /  0mm
08:44 30.9 °F /  -0.6 °C 26.6 °F /  -3 °C 29.67in /  1004.6hPa South 3.0mph /  4.8km/h 10.0mph /  16.1km/h 84% 0.00in /  0mm
08:49 30.9 °F /  -0.6 °C 26.9 °F /  -2.8 °C 29.67in /  1004.6hPa South 3.0mph /  4.8km/h 10.0mph /  16.1km/h 85% 0.00in /  0mm
08:54 30.9 °F /  -0.6 °C 26.6 °F /  -3 °C 29.65in /  1003.9hPa South 6.0mph /  9.7km/h 12.0mph /  19.3km/h 84% 0.00in /  0mm
08:59 30.9 °F /  -0.6 °C 26.6 °F /  -3 °C 29.65in /  1003.9hPa South 5.0mph /  8km/h 12.0mph /  19.3km/h 84% 0.00in /  0mm
09:04 30.8 °F /  -0.7 °C 26.5 °F /  -3.1 °C 29.64in /  1003.6hPa South 5.0mph /  8km/h 9.0mph /  14.5km/h 84% 0.00in /  0mm
09:09 30.8 °F /  -0.7 °C 26.5 °F /  -3.1 °C 29.63in /  1003.3hPa South 5.0mph /  8km/h 12.0mph /  19.3km/h 84% 0.00in /  0mm
09:14 30.8 °F /  -0.7 °C 26.5 °F /  -3.1 °C 29.62in /  1002.9hPa SSW 3.0mph /  4.8km/h 12.0mph /  19.3km/h 84% 0.00in /  0mm
09:19 30.9 °F /  -0.6 °C 26.6 °F /  -3 °C 29.61in /  1002.6hPa South 5.0mph /  8km/h 9.0mph /  14.5km/h 84% 0.00in /  0mm
09:24 30.9 °F /  -0.6 °C 26.6 °F /  -3 °C 29.61in /  1002.6hPa South 5.0mph /  8km/h 12.0mph /  19.3km/h 84% 0.00in /  0mm
09:29 31.0 °F /  -0.6 °C 26.7 °F /  -2.9 °C 29.61in /  1002.6hPa South 5.0mph /  8km/h 12.0mph /  19.3km/h 84% 0.00in /  0mm
09:34 31.0 °F /  -0.6 °C 26.7 °F /  -2.9 °C 29.60in /  1002.3hPa SSW 6.0mph /  9.7km/h 13.0mph /  20.9km/h 84% 0.00in /  0mm
09:39 31.0 °F /  -0.6 °C 26.7 °F /  -2.9 °C 29.60in /  1002.3hPa South 6.0mph /  9.7km/h 13.0mph /  20.9km/h 84% 0.00in /  0mm
09:44 30.9 °F /  -0.6 °C 26.6 °F /  -3 °C 29.59in /  1001.9hPa South 3.0mph /  4.8km/h 14.0mph /  22.5km/h 84% 0.00in /  0mm
09:49 30.9 °F /  -0.6 °C 26.6 °F /  -3 °C 29.59in /  1001.9hPa SSW 5.0mph /  8km/h 14.0mph /  22.5km/h 84% 0.00in /  0mm
09:54 30.9 °F /  -0.6 °C 26.6 °F /  -3 °C 29.57in /  1001.2hPa South 6.0mph /  9.7km/h 11.0mph /  17.7km/h 84% 0.00in /  0mm
09:59 30.9 °F /  -0.6 °C 26.6 °F /  -3 °C 29.57in /  1001.2hPa SSW 3.0mph /  4.8km/h 10.0mph /  16.1km/h 84% 0.00in /  0mm
10:04 31.0 °F /  -0.6 °C 26.7 °F /  -2.9 °C 29.56in /  1000.9hPa South 3.0mph /  4.8km/h 9.0mph /  14.5km/h 84% 0.00in /  0mm
10:09 31.0 °F /  -0.6 °C 26.4 °F /  -3.1 °C 29.55in /  1000.6hPa South 3.0mph /  4.8km/h 10.0mph /  16.1km/h 83% 0.00in /  0mm
10:14 31.2 °F /  -0.4 °C 26.6 °F /  -3 °C 29.54in /  1000.2hPa South 4.0mph /  6.4km/h 10.0mph /  16.1km/h 83% 0.00in /  0mm
10:19 31.3 °F /  -0.4 °C 26.7 °F /  -2.9 °C 29.53in /  999.9hPa South 5.0mph /  8km/h 10.0mph /  16.1km/h 83% 0.00in /  0mm
10:24 31.3 °F /  -0.4 °C 26.7 °F /  -2.9 °C 29.53in /  999.9hPa South 5.0mph /  8km/h 10.0mph /  16.1km/h 83% 0.00in /  0mm
10:29 31.4 °F /  -0.3 °C 26.8 °F /  -2.9 °C 29.53in /  999.9hPa South 5.0mph /  8km/h 11.0mph /  17.7km/h 83% 0.00in /  0mm
10:34 31.4 °F /  -0.3 °C 26.8 °F /  -2.9 °C 29.53in /  999.9hPa SSW 4.0mph /  6.4km/h 11.0mph /  17.7km/h 83% 0.00in /  0mm
10:39 31.5 °F /  -0.3 °C 26.9 °F /  -2.8 °C 29.52in /  999.5hPa South 6.0mph /  9.7km/h 9.0mph /  14.5km/h 83% 0.00in /  0mm
10:44 31.5 °F /  -0.3 °C 26.9 °F /  -2.8 °C 29.52in /  999.5hPa South 2.0mph /  3.2km/h 9.0mph /  14.5km/h 83% 0.00in /  0mm
10:49 31.6 °F /  -0.2 °C 27.3 °F /  -2.6 °C 29.52in /  999.5hPa SSW 3.0mph /  4.8km/h 9.0mph /  14.5km/h 84% 0.00in /  0mm
10:54 31.7 °F /  -0.2 °C 27.4 °F /  -2.6 °C 29.52in /  999.5hPa South 4.0mph /  6.4km/h 9.0mph /  14.5km/h 84% 0.00in /  0mm
10:59 31.8 °F /  -0.1 °C 27.5 °F /  -2.5 °C 29.52in /  999.5hPa South 2.0mph /  3.2km/h 9.0mph /  14.5km/h 84% 0.00in /  0mm
11:04 31.9 °F /  -0.1 °C 27.6 °F /  -2.4 °C 29.52in /  999.5hPa Calm   7.0mph /  11.3km/h 84% 0.00in /  0mm
11:09 32.0 °F /  0 °C 27.7 °F /  -2.4 °C 29.52in /  999.5hPa Calm     84% 0.00in /  0mm
11:14 32.0 °F /  0 °C 27.7 °F /  -2.4 °C 29.51in /  999.2hPa Calm     84% 0.00in /  0mm
11:19 32.0 °F /  0 °C 27.7 °F /  -2.4 °C 29.51in /  999.2hPa Calm     84% 0.00in /  0mm
11:24 31.9 °F /  -0.1 °C 27.6 °F /  -2.4 °C 29.50in /  998.9hPa Calm     84% 0.00in /  0mm
11:29 31.8 °F /  -0.1 °C 27.5 °F /  -2.5 °C 29.50in /  998.9hPa Calm     84% 0.00in /  0mm
11:34 32.0 °F /  0 °C 27.7 °F /  -2.4 °C 29.49in /  998.5hPa Calm     84% 0.00in /  0mm
11:39 32.2 °F /  0.1 °C 27.9 °F /  -2.3 °C 29.48in /  998.2hPa Calm     84% 0.00in /  0mm
11:44 32.3 °F /  0.2 °C 28.0 °F /  -2.2 °C 29.48in /  998.2hPa Calm     84% 0.00in /  0mm
11:49 32.3 °F /  0.2 °C 28.0 °F /  -2.2 °C 29.47in /  997.9hPa Calm     84% 0.00in /  0mm
11:54 32.3 °F /  0.2 °C 28.0 °F /  -2.2 °C 29.46in /  997.5hPa Calm     84% 0.00in /  0mm
11:59 32.3 °F /  0.2 °C 28.0 °F /  -2.2 °C 29.45in /  997.2hPa Calm     84% 0.00in /  0mm
12:04 32.3 °F /  0.2 °C 28.0 °F /  -2.2 °C 29.45in /  997.2hPa Calm     84% 0.00in /  0mm
12:09 32.3 °F /  0.2 °C 28.0 °F /  -2.2 °C 29.45in /  997.2hPa Calm     84% 0.00in /  0mm
12:14 32.4 °F /  0.2 °C 28.1 °F /  -2.2 °C 29.44in /  996.8hPa Calm     84% 0.00in /  0mm
12:19 32.5 °F /  0.3 °C 28.2 °F /  -2.1 °C 29.44in /  996.8hPa Calm     84% 0.00in /  0mm
12:24 32.6 °F /  0.3 °C 28.3 °F /  -2.1 °C 29.43in /  996.5hPa Calm     84% 0.00in /  0mm
12:29 32.6 °F /  0.3 °C 28.6 °F /  -1.9 °C 29.43in /  996.5hPa Calm     85% 0.00in /  0mm
12:34 32.6 °F /  0.3 °C 28.6 °F /  -1.9 °C 29.42in /  996.2hPa Calm     85% 0.00in /  0mm
12:39 32.6 °F /  0.3 °C 28.6 °F /  -1.9 °C 29.42in /  996.2hPa Calm     85% 0.00in /  0mm
12:44 32.6 °F /  0.3 °C 28.6 °F /  -1.9 °C 29.41in /  995.8hPa Calm     85% 0.00in /  0mm
12:49 32.5 °F /  0.3 °C 28.5 °F /  -1.9 °C 29.40in /  995.5hPa Calm     85% 0.00in /  0mm
12:54 32.5 °F /  0.3 °C 28.5 °F /  -1.9 °C 29.40in /  995.5hPa Calm     85% 0.00in /  0mm
12:59 32.5 °F /  0.3 °C 28.8 °F /  -1.8 °C 29.41in /  995.8hPa Calm     86% 0.00in /  0mm
13:04 32.5 °F /  0.3 °C 28.8 °F /  -1.8 °C 29.40in /  995.5hPa Calm     86% 0.00in /  0mm
13:09 32.5 °F /  0.3 °C 28.8 °F /  -1.8 °C 29.39in /  995.1hPa Calm     86% 0.00in /  0mm
13:14 32.6 °F /  0.3 °C 29.2 °F /  -1.6 °C 29.39in /  995.1hPa Calm     87% 0.00in /  0mm
13:19 32.6 °F /  0.3 °C 29.2 °F /  -1.6 °C 29.40in /  995.5hPa Calm     87% 0.00in /  0mm
13:24 32.6 °F /  0.3 °C 29.2 °F /  -1.6 °C 29.41in /  995.8hPa Calm     87% 0.00in /  0mm
13:29 32.5 °F /  0.3 °C 29.3 °F /  -1.5 °C 29.40in /  995.5hPa Calm     88% 0.00in /  0mm
13:34 32.6 °F /  0.3 °C 29.4 °F /  -1.4 °C 29.40in /  995.5hPa Calm     88% 0.00in /  0mm
13:44 32.7 °F /  0.4 °C 29.5 °F /  -1.4 °C 29.39in /  995.1hPa Calm     88% 0.00in /  0mm
13:49 32.7 °F /  0.4 °C 29.5 °F /  -1.4 °C 29.40in /  995.5hPa Calm     88% 0.00in /  0mm
13:54 32.6 °F /  0.3 °C 29.4 °F /  -1.4 °C 29.40in /  995.5hPa Calm     88% 0.00in /  0mm
13:59 32.6 °F /  0.3 °C 29.7 °F /  -1.3 °C 29.41in /  995.8hPa Calm     89% 0.00in /  0mm
14:04 32.6 °F /  0.3 °C 29.7 °F /  -1.3 °C 29.42in /  996.2hPa Calm     89% 0.00in /  0mm
14:09 32.7 °F /  0.4 °C 29.8 °F /  -1.2 °C 29.42in /  996.2hPa Calm     89% 0.00in /  0mm
14:14 32.7 °F /  0.4 °C 29.8 °F /  -1.2 °C 29.42in /  996.2hPa Calm     89% 0.00in /  0mm
14:19 32.7 °F /  0.4 °C 29.8 °F /  -1.2 °C 29.42in /  996.2hPa Calm     89% 0.00in /  0mm
14:24 32.7 °F /  0.4 °C 29.8 °F /  -1.2 °C 29.43in /  996.5hPa Calm     89% 0.00in /  0mm
14:29 32.6 °F /  0.3 °C 29.7 °F /  -1.3 °C 29.44in /  996.8hPa Calm     89% 0.00in /  0mm
14:35 32.6 °F /  0.3 °C 30.0 °F /  -1.1 °C 29.45in /  997.2hPa Calm     90% 0.00in /  0mm
14:39 32.6 °F /  0.3 °C 30.0 °F /  -1.1 °C 29.45in /  997.2hPa Calm     90% 0.00in /  0mm
14:44 32.8 °F /  0.4 °C 30.2 °F /  -1 °C 29.45in /  997.2hPa Calm     90% 0.00in /  0mm
14:49 33.0 °F /  0.6 °C 30.4 °F /  -0.9 °C 29.44in /  996.8hPa Calm     90% 0.00in /  0mm
14:54 33.2 °F /  0.7 °C 30.9 °F /  -0.6 °C 29.44in /  996.8hPa Calm     91% 0.00in /  0mm
14:59 33.3 °F /  0.7 °C 31.0 °F /  -0.6 °C 29.44in /  996.8hPa Calm     91% 0.00in /  0mm
15:04 33.3 °F /  0.7 °C 31.0 °F /  -0.6 °C 29.44in /  996.8hPa Calm     91% 0.00in /  0mm
15:09 33.3 °F /  0.7 °C 31.0 °F /  -0.6 °C 29.44in /  996.8hPa Calm     91% 0.00in /  0mm
15:14 33.3 °F /  0.7 °C 31.0 °F /  -0.6 °C 29.44in /  996.8hPa Calm     91% 0.00in /  0mm
15:19 33.3 °F /  0.7 °C 31.0 °F /  -0.6 °C 29.43in /  996.5hPa Calm     91% 0.00in /  0mm
15:24 33.3 °F /  0.7 °C 31.0 °F /  -0.6 °C 29.43in /  996.5hPa Calm     91% 0.00in /  0mm
15:29 33.3 °F /  0.7 °C 31.0 °F /  -0.6 °C 29.44in /  996.8hPa Calm     91% 0.00in /  0mm
15:34 33.3 °F /  0.7 °C 31.0 °F /  -0.6 °C 29.45in /  997.2hPa Calm     91% 0.00in /  0mm
15:39 33.2 °F /  0.7 °C 30.9 °F /  -0.6 °C 29.46in /  997.5hPa Calm     91% 0.00in /  0mm
15:44 33.2 °F /  0.7 °C 30.9 °F /  -0.6 °C 29.46in /  997.5hPa Calm     91% 0.00in /  0mm
15:49 33.3 °F /  0.7 °C 31.2 °F /  -0.4 °C 29.46in /  997.5hPa Calm     92% 0.00in /  0mm
15:54 33.4 °F /  0.8 °C 31.3 °F /  -0.4 °C 29.46in /  997.5hPa Calm     92% 0.00in /  0mm
15:59 33.5 °F /  0.8 °C 31.4 °F /  -0.3 °C 29.46in /  997.5hPa Calm     92% 0.00in /  0mm
16:04 33.4 °F /  0.8 °C 31.3 °F /  -0.4 °C 29.47in /  997.9hPa Calm     92% 0.00in /  0mm
16:09 33.5 °F /  0.8 °C 31.4 °F /  -0.3 °C 29.48in /  998.2hPa Calm     92% 0.00in /  0mm
16:14 33.5 °F /  0.8 °C 31.4 °F /  -0.3 °C 29.48in /  998.2hPa Calm     92% 0.00in /  0mm
16:19 33.5 °F /  0.8 °C 31.4 °F /  -0.3 °C 29.48in /  998.2hPa Calm     92% 0.00in /  0mm
16:24 33.6 °F /  0.9 °C 31.5 °F /  -0.3 °C 29.47in /  997.9hPa Calm     92% 0.00in /  0mm
16:29 33.6 °F /  0.9 °C 31.5 °F /  -0.3 °C 29.47in /  997.9hPa Calm     92% 0.00in /  0mm
16:34 33.5 °F /  0.8 °C 31.4 °F /  -0.3 °C 29.48in /  998.2hPa Calm     92% 0.00in /  0mm
16:39 33.5 °F /  0.8 °C 31.4 °F /  -0.3 °C 29.49in /  998.5hPa Calm     92% 0.00in /  0mm
16:44 33.5 °F /  0.8 °C 31.4 °F /  -0.3 °C 29.50in /  998.9hPa WSW 1.0mph /  1.6km/h 6.0mph /  9.7km/h 92% 0.00in /  0mm
16:49 33.5 °F /  0.8 °C 31.4 °F /  -0.3 °C 29.51in /  999.2hPa WSW 3.0mph /  4.8km/h 6.0mph /  9.7km/h 92% 0.00in /  0mm
16:55 33.6 °F /  0.9 °C 31.5 °F /  -0.3 °C 29.52in /  999.5hPa WSW 2.0mph /  3.2km/h 6.0mph /  9.7km/h 92% 0.00in /  0mm
16:59 33.6 °F /  0.9 °C 31.8 °F /  -0.1 °C 29.52in /  999.5hPa WSW 2.0mph /  3.2km/h 5.0mph /  8km/h 93% 0.00in /  0mm
17:04 33.8 °F /  1 °C 32.0 °F /  0 °C 29.53in /  999.9hPa WSW 3.0mph /  4.8km/h 6.0mph /  9.7km/h 93% 0.00in /  0mm
17:09 34.0 °F /  1.1 °C 32.2 °F /  0.1 °C 29.54in /  1000.2hPa WSW 4.0mph /  6.4km/h 6.0mph /  9.7km/h 93% 0.00in /  0mm
17:14 34.0 °F /  1.1 °C 32.2 °F /  0.1 °C 29.55in /  1000.6hPa West 3.0mph /  4.8km/h 7.0mph /  11.3km/h 93% 0.00in /  0mm
17:19 34.1 °F /  1.2 °C 32.3 °F /  0.2 °C 29.56in /  1000.9hPa West 4.0mph /  6.4km/h 8.0mph /  12.9km/h 93% 0.00in /  0mm
17:24 34.1 °F /  1.2 °C 32.3 °F /  0.2 °C 29.57in /  1001.2hPa WNW 3.0mph /  4.8km/h 8.0mph /  12.9km/h 93% 0.00in /  0mm
17:29 34.0 °F /  1.1 °C 32.2 °F /  0.1 °C 29.58in /  1001.6hPa NW 7.0mph /  11.3km/h 12.0mph /  19.3km/h 93% 0.00in /  0mm
17:34 34.0 °F /  1.1 °C 32.2 °F /  0.1 °C 29.58in /  1001.6hPa NW 3.0mph /  4.8km/h 12.0mph /  19.3km/h 93% 0.00in /  0mm
17:39 33.8 °F /  1 °C 32.0 °F /  0 °C 29.59in /  1001.9hPa NW 7.0mph /  11.3km/h 13.0mph /  20.9km/h 93% 0.00in /  0mm
17:44 33.6 °F /  0.9 °C 31.8 °F /  -0.1 °C 29.59in /  1001.9hPa NW 6.0mph /  9.7km/h 13.0mph /  20.9km/h 93% 0.00in /  0mm
17:49 33.5 °F /  0.8 °C 31.4 °F /  -0.3 °C 29.60in /  1002.3hPa WNW 4.0mph /  6.4km/h 9.0mph /  14.5km/h 92% 0.00in /  0mm
17:54 33.4 °F /  0.8 °C 31.3 °F /  -0.4 °C 29.60in /  1002.3hPa NW 3.0mph /  4.8km/h 8.0mph /  12.9km/h 92% 0.00in /  0mm
17:59 33.2 °F /  0.7 °C 31.1 °F /  -0.5 °C 29.61in /  1002.6hPa NW 6.0mph /  9.7km/h 11.0mph /  17.7km/h 92% 0.00in /  0mm
18:04 33.0 °F /  0.6 °C 30.9 °F /  -0.6 °C 29.62in /  1002.9hPa NW 6.0mph /  9.7km/h 14.0mph /  22.5km/h 92% 0.00in /  0mm
18:09 32.8 °F /  0.4 °C 30.5 °F /  -0.8 °C 29.63in /  1003.3hPa NW 10.0mph /  16.1km/h 21.0mph /  33.8km/h 91% 0.00in /  0mm
18:14 32.5 °F /  0.3 °C 29.9 °F /  -1.2 °C 29.63in /  1003.3hPa WNW 12.0mph /  19.3km/h 21.0mph /  33.8km/h 90% 0.00in /  0mm
18:19 32.3 °F /  0.2 °C 29.4 °F /  -1.4 °C 29.64in /  1003.6hPa WNW 14.0mph /  22.5km/h 23.0mph /  37km/h 89% 0.00in /  0mm
18:24 32.0 °F /  0 °C 29.1 °F /  -1.6 °C 29.64in /  1003.6hPa NW 12.0mph /  19.3km/h 23.0mph /  37km/h 89% 0.00in /  0mm
18:29 31.8 °F /  -0.1 °C 28.7 °F /  -1.8 °C 29.65in /  1003.9hPa WNW 11.0mph /  17.7km/h 22.0mph /  35.4km/h 88% 0.00in /  0mm
18:39 31.6 °F /  -0.2 °C 28.5 °F /  -1.9 °C 29.66in /  1004.3hPa WNW 11.0mph /  17.7km/h 17.0mph /  27.4km/h 88% 0.00in /  0mm
18:44 31.4 °F /  -0.3 °C 28.3 °F /  -2.1 °C 29.67in /  1004.6hPa NW 10.0mph /  16.1km/h 24.0mph /  38.6km/h 88% 0.00in /  0mm
18:49 31.3 °F /  -0.4 °C 27.9 °F /  -2.3 °C 29.67in /  1004.6hPa NNW 9.0mph /  14.5km/h 24.0mph /  38.6km/h 87% 0.00in /  0mm
18:54 31.2 °F /  -0.4 °C 27.8 °F /  -2.3 °C 29.67in /  1004.6hPa NW 5.0mph /  8km/h 17.0mph /  27.4km/h 87% 0.00in /  0mm
18:59 31.2 °F /  -0.4 °C 27.5 °F /  -2.5 °C 29.68in /  1005hPa WNW 8.0mph /  12.9km/h 17.0mph /  27.4km/h 86% 0.00in /  0mm
19:04 31.2 °F /  -0.4 °C 27.2 °F /  -2.7 °C 29.68in /  1005hPa NW 6.0mph /  9.7km/h 17.0mph /  27.4km/h 85% 0.00in /  0mm
19:09 31.2 °F /  -0.4 °C 27.2 °F /  -2.7 °C 29.68in /  1005hPa NW 6.0mph /  9.7km/h 16.0mph /  25.7km/h 85% 0.00in /  0mm
19:14 31.2 °F /  -0.4 °C 27.2 °F /  -2.7 °C 29.69in /  1005.3hPa NW 5.0mph /  8km/h 15.0mph /  24.1km/h 85% 0.00in /  0mm
19:19 31.2 °F /  -0.4 °C 27.2 °F /  -2.7 °C 29.70in /  1005.6hPa WNW 4.0mph /  6.4km/h 15.0mph /  24.1km/h 85% 0.00in /  0mm
19:24 31.2 °F /  -0.4 °C 27.2 °F /  -2.7 °C 29.70in /  1005.6hPa NW 7.0mph /  11.3km/h 15.0mph /  24.1km/h 85% 0.00in /  0mm
19:29 31.2 °F /  -0.4 °C 27.2 °F /  -2.7 °C 29.71in /  1006hPa NW 5.0mph /  8km/h 15.0mph /  24.1km/h 85% 0.00in /  0mm
19:34 31.1 °F /  -0.5 °C 26.8 °F /  -2.9 °C 29.71in /  1006hPa NW 8.0mph /  12.9km/h 13.0mph /  20.9km/h 84% 0.00in /  0mm
19:39 31.1 °F /  -0.5 °C 26.8 °F /  -2.9 °C 29.72in /  1006.3hPa WNW 6.0mph /  9.7km/h 21.0mph /  33.8km/h 84% 0.00in /  0mm
19:44 31.1 °F /  -0.5 °C 26.8 °F /  -2.9 °C 29.73in /  1006.7hPa NW 7.0mph /  11.3km/h 21.0mph /  33.8km/h 84% 0.00in /  0mm
19:49 31.0 °F /  -0.6 °C 26.7 °F /  -2.9 °C 29.73in /  1006.7hPa NW 9.0mph /  14.5km/h 19.0mph /  30.6km/h 84% 0.00in /  0mm
19:54 30.9 °F /  -0.6 °C 26.3 °F /  -3.2 °C 29.74in /  1007hPa NW 5.0mph /  8km/h 19.0mph /  30.6km/h 83% 0.00in /  0mm
19:59 30.9 °F /  -0.6 °C 26.3 °F /  -3.2 °C 29.74in /  1007hPa NW 5.0mph /  8km/h 15.0mph /  24.1km/h 83% 0.00in /  0mm
20:04 30.8 °F /  -0.7 °C 26.3 °F /  -3.2 °C 29.74in /  1007hPa NW 6.0mph /  9.7km/h 15.0mph /  24.1km/h 83% 0.00in /  0mm
20:09 30.8 °F /  -0.7 °C 26.3 °F /  -3.2 °C 29.75in /  1007.3hPa NW 4.0mph /  6.4km/h 14.0mph /  22.5km/h 83% 0.00in /  0mm
20:14 30.8 °F /  -0.7 °C 26.0 °F /  -3.3 °C 29.76in /  1007.7hPa NW 8.0mph /  12.9km/h 17.0mph /  27.4km/h 82% 0.00in /  0mm
20:19 30.7 °F /  -0.7 °C 25.6 °F /  -3.6 °C 29.75in /  1007.3hPa NW 8.0mph /  12.9km/h 21.0mph /  33.8km/h 81% 0.00in /  0mm
20:24 30.7 °F /  -0.7 °C 25.6 °F /  -3.6 °C 29.75in /  1007.3hPa NW 4.0mph /  6.4km/h 21.0mph /  33.8km/h 81% 0.00in /  0mm
20:29 30.6 °F /  -0.8 °C 25.5 °F /  -3.6 °C 29.75in /  1007.3hPa NW 4.0mph /  6.4km/h 19.0mph /  30.6km/h 81% 0.00in /  0mm
20:34 30.5 °F /  -0.8 °C 25.4 °F /  -3.7 °C 29.76in /  1007.7hPa NW 4.0mph /  6.4km/h 11.0mph /  17.7km/h 81% 0.00in /  0mm
20:39 30.4 °F /  -0.9 °C 25.3 °F /  -3.7 °C 29.76in /  1007.7hPa NW 4.0mph /  6.4km/h 12.0mph /  19.3km/h 81% 0.00in /  0mm
20:44 30.3 °F /  -0.9 °C 25.2 °F /  -3.8 °C 29.76in /  1007.7hPa NW 4.0mph /  6.4km/h 12.0mph /  19.3km/h 81% 0.00in /  0mm
20:49 30.2 °F /  -1 °C 25.1 °F /  -3.8 °C 29.77in /  1008hPa NNW 12.0mph /  19.3km/h 26.0mph /  41.8km/h 81% 0.00in /  0mm
20:54 30.1 °F /  -1.1 °C 25.3 °F /  -3.7 °C 29.78in /  1008.4hPa NW 5.0mph /  8km/h 26.0mph /  41.8km/h 82% 0.00in /  0mm
20:59 29.7 °F /  -1.3 °C 23.7 °F /  -4.6 °C 29.78in /  1008.4hPa NW 8.0mph /  12.9km/h 25.0mph /  40.2km/h 78% 0.00in /  0mm
21:04 29.6 °F /  -1.3 °C 23.3 °F /  -4.8 °C 29.78in /  1008.4hPa NW 7.0mph /  11.3km/h 25.0mph /  40.2km/h 77% 0.00in /  0mm
21:09 29.4 °F /  -1.4 °C 22.5 °F /  -5.3 °C 29.79in /  1008.7hPa NW 9.0mph /  14.5km/h 21.0mph /  33.8km/h 75% 0.00in /  0mm
21:14 29.2 °F /  -1.6 °C 21.6 °F /  -5.8 °C 29.79in /  1008.7hPa NW 9.0mph /  14.5km/h 21.0mph /  33.8km/h 73% 0.00in /  0mm
21:19 28.9 °F /  -1.7 °C 21.0 °F /  -6.1 °C 29.79in /  1008.7hPa NW 9.0mph /  14.5km/h 17.0mph /  27.4km/h 72% 0.00in /  0mm
21:24 28.6 °F /  -1.9 °C 20.4 °F /  -6.4 °C 29.80in /  1009hPa NW 9.0mph /  14.5km/h 16.0mph /  25.7km/h 71% 0.00in /  0mm
21:29 28.4 °F /  -2 °C 19.9 °F /  -6.7 °C 29.80in /  1009hPa NW 9.0mph /  14.5km/h 18.0mph /  29km/h 70% 0.00in /  0mm
21:34 28.1 °F /  -2.2 °C 19.6 °F /  -6.9 °C 29.80in /  1009hPa NW 9.0mph /  14.5km/h 18.0mph /  29km/h 70% 0.00in /  0mm
21:39 27.9 °F /  -2.3 °C 19.4 °F /  -7 °C 29.80in /  1009hPa NW 7.0mph /  11.3km/h 17.0mph /  27.4km/h 70% 0.00in /  0mm
21:44 27.8 °F /  -2.3 °C 19.6 °F /  -6.9 °C 29.80in /  1009hPa NW 8.0mph /  12.9km/h 17.0mph /  27.4km/h 71% 0.00in /  0mm
21:49 27.6 °F /  -2.4 °C 19.8 °F /  -6.8 °C 29.81in /  1009.4hPa NW 4.0mph /  6.4km/h 17.0mph /  27.4km/h 72% 0.00in /  0mm
21:54 27.5 °F /  -2.5 °C 19.7 °F /  -6.8 °C 29.81in /  1009.4hPa NW 8.0mph /  12.9km/h 17.0mph /  27.4km/h 72% 0.00in /  0mm
21:59 27.6 °F /  -2.4 °C 19.8 °F /  -6.8 °C 29.81in /  1009.4hPa NW 7.0mph /  11.3km/h 18.0mph /  29km/h 72% 0.00in /  0mm
22:04 27.5 °F /  -2.5 °C 19.7 °F /  -6.8 °C 29.81in /  1009.4hPa NW 6.0mph /  9.7km/h 18.0mph /  29km/h 72% 0.00in /  0mm
22:09 27.4 °F /  -2.6 °C 19.6 °F /  -6.9 °C 29.82in /  1009.7hPa NW 6.0mph /  9.7km/h 18.0mph /  29km/h 72% 0.00in /  0mm
22:14 27.4 °F /  -2.6 °C 19.6 °F /  -6.9 °C 29.82in /  1009.7hPa NW 10.0mph /  16.1km/h 18.0mph /  29km/h 72% 0.00in /  0mm
22:19 27.4 °F /  -2.6 °C 19.9 °F /  -6.7 °C 29.82in /  1009.7hPa NNW 9.0mph /  14.5km/h 18.0mph /  29km/h 73% 0.00in /  0mm
22:24 27.4 °F /  -2.6 °C 19.9 °F /  -6.7 °C 29.82in /  1009.7hPa WNW 10.0mph /  16.1km/h 20.0mph /  32.2km/h 73% 0.00in /  0mm
22:29 27.3 °F /  -2.6 °C 20.1 °F /  -6.6 °C 29.83in /  1010hPa NNW 5.0mph /  8km/h 20.0mph /  32.2km/h 74% 0.00in /  0mm
22:34 27.2 °F /  -2.7 °C 20.0 °F /  -6.7 °C 29.83in /  1010hPa NW 10.0mph /  16.1km/h 17.0mph /  27.4km/h 74% 0.00in /  0mm
22:39 27.1 °F /  -2.7 °C 20.2 °F /  -6.6 °C 29.83in /  1010hPa NW 6.0mph /  9.7km/h 17.0mph /  27.4km/h 75% 0.00in /  0mm
22:44 27.1 °F /  -2.7 °C 20.2 °F /  -6.6 °C 29.84in /  1010.4hPa WNW 6.0mph /  9.7km/h 14.0mph /  22.5km/h 75% 0.00in /  0mm
22:49 27.2 °F /  -2.7 °C 20.3 °F /  -6.5 °C 29.84in /  1010.4hPa NNW 5.0mph /  8km/h 18.0mph /  29km/h 75% 0.00in /  0mm
22:54 27.1 °F /  -2.7 °C 20.2 °F /  -6.6 °C 29.84in /  1010.4hPa NW 5.0mph /  8km/h 18.0mph /  29km/h 75% 0.00in /  0mm
23:04 26.8 °F /  -2.9 °C 19.9 °F /  -6.7 °C 29.85in /  1010.7hPa NNW 6.0mph /  9.7km/h 16.0mph /  25.7km/h 75% 0.00in /  0mm
23:09 26.7 °F /  -2.9 °C 20.2 °F /  -6.6 °C 29.85in /  1010.7hPa NW 6.0mph /  9.7km/h 16.0mph /  25.7km/h 76% 0.00in /  0mm
23:14 26.8 °F /  -2.9 °C 20.3 °F /  -6.5 °C 29.85in /  1010.7hPa NW 7.0mph /  11.3km/h 15.0mph /  24.1km/h 76% 0.00in /  0mm
23:19 26.8 °F /  -2.9 °C 20.3 °F /  -6.5 °C 29.86in /  1011.1hPa NW 6.0mph /  9.7km/h 15.0mph /  24.1km/h 76% 0.00in /  0mm
23:24 26.7 °F /  -2.9 °C 20.2 °F /  -6.6 °C 29.86in /  1011.1hPa NW 9.0mph /  14.5km/h 16.0mph /  25.7km/h 76% 0.00in /  0mm
23:29 26.7 °F /  -2.9 °C 20.2 °F /  -6.6 °C 29.86in /  1011.1hPa NW 8.0mph /  12.9km/h 19.0mph /  30.6km/h 76% 0.00in /  0mm
23:34 26.6 °F /  -3 °C 19.7 °F /  -6.8 °C 29.86in /  1011.1hPa NW 10.0mph /  16.1km/h 25.0mph /  40.2km/h 75% 0.00in /  0mm
23:39 26.5 °F /  -3.1 °C 20.0 °F /  -6.7 °C 29.86in /  1011.1hPa NW 6.0mph /  9.7km/h 25.0mph /  40.2km/h 76% 0.00in /  0mm
23:44 26.3 °F /  -3.2 °C 19.8 °F /  -6.8 °C 29.87in /  1011.4hPa NNW 9.0mph /  14.5km/h 23.0mph /  37km/h 76% 0.00in /  0mm
23:49 26.2 °F /  -3.2 °C 19.7 °F /  -6.8 °C 29.86in /  1011.1hPa NW 7.0mph /  11.3km/h 23.0mph /  37km/h 76% 0.00in /  0mm
23:54 26.1 °F /  -3.3 °C 19.0 °F /  -7.2 °C 29.86in /  1011.1hPa NW 13.0mph /  20.9km/h 26.0mph /  41.8km/h 74% 0.00in /  0mm
23:59 26.0 °F /  -3.3 °C 19.2 °F /  -7.1 °C 29.87in /  1011.4hPa NNW 8.0mph /  12.9km/h 26.0mph /  41.8km/h 75% 0.00in /  0mm
Westford Weather
Compliments of Weather Underground

 
 
Current Radar Loop:

Copyright © WestfordWeather.net 2007-2014. All rights reserved.